Nickerson, NE (68044)

6:39 AM CST on March 05, 2015 (GMT -0600)
HADS MAPLE CREEK NEAR NICKERSON 4NW NE US USGS | Change Station
CLOSE
Current Station
Personal Weather Station
Location: Nickerson, NE
Elevation: 1222 ft
Nearby Weather Stations

Elev 1222 ft 41.56 °N, 96.54 °W | Updated 54 minutes ago

Clear
Clear
-3 °F
Feels Like -3 °F
N
Wind Variable Wind from North
Gusts 0.0 mph

Today
High -- | Low -- °F
--% Chance of Precip.
Yesterday
High -- | Low -- °F
Precip. -- in
6:54 AM 6:20 PM
Full, 100% visible
Pressure 30.50 in
Visibility 10.0 miles
Clouds Clear
Windchill -3 °F
Dew Point Not available.
Humidity Not available.
Rainfall in
Snow Depth Not available.
UV 0 out of 12
Pollen 1.20 out of 12
Air Quality Not available.
Flu Activity Not available.
METAR KFET 051215Z AUTO 00000KT 10SM CLR M17/M21 A3050 RMK AO2 T11711207

More Conditions Fewer Conditions

Pressure 30.50 in
Visibility 10.0 miles
Clouds Clear
Windchill -3 °F
Dew Point Not available.
Humidity Not available.
Rainfall in
Snow Depth Not available.
UV 0 out of 12
Pollen 1.20 out of 12
Air Quality Not available.
Flu Activity Not available.
METAR KFET 051215Z AUTO 00000KT 10SM CLR M17/M21 A3050 RMK AO2 T11711207

More Conditions Fewer Conditions

10-Day Weather Forecast

Almanac

Astronomy

Mar. 05, 2015 Rise Set
Actual Time
Civil Twilight
Nautical Twilight
Astronomical Twilight
Moon
Length of Visible Light
Length of Day
Tomorrow will be .
, % of the Moon is Illuminated

Today's Extremes

State Highs State Lows

Community

WunderPhotos

Upload Photos

1,802,736 photos uploaded!

WunderBlogs® & News

Nearby

Air Quality

  Air Quality AQ Index Pollutant
Not available.

Snow Depth

Station Depth Elevation

Earthquake Activity

City Distance Mag. Time & Date
Minimum magnitude displayed is 2.5.

Coastal Water Temperatures

Place Temperature

Nearby Weather Stations